sensor_id;sensor_type;location;lat;lon;timestamp;temperature;humidity
17421;DHT22;8828;48.800;9.540;2023-06-22T00:00:13;23.30;99.90
17421;DHT22;8828;48.800;9.540;2023-06-22T00:02:41;23.20;99.90
17421;DHT22;8828;48.800;9.540;2023-06-22T00:05:09;23.20;99.90
17421;DHT22;8828;48.800;9.540;2023-06-22T00:07:37;23.20;99.90
17421;DHT22;8828;48.800;9.540;2023-06-22T00:10:05;23.10;99.90
17421;DHT22;8828;48.800;9.540;2023-06-22T00:12:33;23.10;99.90
17421;DHT22;8828;48.800;9.540;2023-06-22T00:15:01;23.10;99.90
17421;DHT22;8828;48.800;9.540;2023-06-22T00:17:30;23.00;99.90
17421;DHT22;8828;48.800;9.540;2023-06-22T00:19:58;23.00;99.90
17421;DHT22;8828;48.800;9.540;2023-06-22T00:22:26;22.90;99.90
17421;DHT22;8828;48.800;9.540;2023-06-22T00:24:56;22.90;99.90
17421;DHT22;8828;48.800;9.540;2023-06-22T00:27:24;22.90;99.90
17421;DHT22;8828;48.800;9.540;2023-06-22T00:29:51;22.90;99.90
17421;DHT22;8828;48.800;9.540;2023-06-22T00:32:19;22.90;99.90
17421;DHT22;8828;48.800;9.540;2023-06-22T00:34:48;22.90;99.90
17421;DHT22;8828;48.800;9.540;2023-06-22T00:37:17;22.90;99.90
17421;DHT22;8828;48.800;9.540;2023-06-22T00:39:45;22.80;99.90
17421;DHT22;8828;48.800;9.540;2023-06-22T00:42:12;22.80;99.90
17421;DHT22;8828;48.800;9.540;2023-06-22T00:44:40;22.80;99.90
17421;DHT22;8828;48.800;9.540;2023-06-22T00:47:08;22.80;99.90
17421;DHT22;8828;48.800;9.540;2023-06-22T00:49:36;22.80;99.90
17421;DHT22;8828;48.800;9.540;2023-06-22T00:52:07;22.80;99.90
17421;DHT22;8828;48.800;9.540;2023-06-22T00:54:35;22.80;99.90
17421;DHT22;8828;48.800;9.540;2023-06-22T00:57:03;22.80;99.90
17421;DHT22;8828;48.800;9.540;2023-06-22T00:59:31;22.70;99.90
17421;DHT22;8828;48.800;9.540;2023-06-22T01:02:00;22.80;99.90
17421;DHT22;8828;48.800;9.540;2023-06-22T01:04:33;22.70;99.90
17421;DHT22;8828;48.800;9.540;2023-06-22T01:07:02;22.80;99.90
17421;DHT22;8828;48.800;9.540;2023-06-22T01:09:37;22.70;99.90
17421;DHT22;8828;48.800;9.540;2023-06-22T01:12:08;22.80;99.90
17421;DHT22;8828;48.800;9.540;2023-06-22T01:14:38;22.70;99.90
17421;DHT22;8828;48.800;9.540;2023-06-22T01:17:07;22.70;99.90
17421;DHT22;8828;48.800;9.540;2023-06-22T01:19:38;22.70;99.90
17421;DHT22;8828;48.800;9.540;2023-06-22T01:22:09;22.70;99.90
17421;DHT22;8828;48.800;9.540;2023-06-22T01:24:44;22.60;99.90
17421;DHT22;8828;48.800;9.540;2023-06-22T01:27:18;22.70;99.90
17421;DHT22;8828;48.800;9.540;2023-06-22T01:29:55;22.60;99.90
17421;DHT22;8828;48.800;9.540;2023-06-22T01:32:27;22.60;99.90
17421;DHT22;8828;48.800;9.540;2023-06-22T01:34:55;22.60;99.90
17421;DHT22;8828;48.800;9.540;2023-06-22T01:37:24;22.70;99.90
17421;DHT22;8828;48.800;9.540;2023-06-22T01:39:52;22.60;99.90
17421;DHT22;8828;48.800;9.540;2023-06-22T01:42:21;22.60;99.90
17421;DHT22;8828;48.800;9.540;2023-06-22T01:44:49;22.50;99.90
17421;DHT22;8828;48.800;9.540;2023-06-22T01:47:19;22.50;99.90
17421;DHT22;8828;48.800;9.540;2023-06-22T01:49:47;22.50;99.90
17421;DHT22;8828;48.800;9.540;2023-06-22T01:52:16;22.50;99.90
17421;DHT22;8828;48.800;9.540;2023-06-22T01:54:43;22.40;99.90
17421;DHT22;8828;48.800;9.540;2023-06-22T01:57:12;22.40;99.90
17421;DHT22;8828;48.800;9.540;2023-06-22T01:59:42;22.40;99.90
17421;DHT22;8828;48.800;9.540;2023-06-22T02:02:14;22.40;99.90
17421;DHT22;8828;48.800;9.540;2023-06-22T02:04:46;22.40;99.90
17421;DHT22;8828;48.800;9.540;2023-06-22T02:07:15;22.30;99.90
17421;DHT22;8828;48.800;9.540;2023-06-22T02:09:45;22.30;99.90
17421;DHT22;8828;48.800;9.540;2023-06-22T02:12:16;22.40;99.90
17421;DHT22;8828;48.800;9.540;2023-06-22T02:14:44;22.40;99.90
17421;DHT22;8828;48.800;9.540;2023-06-22T02:17:12;22.30;99.90
17421;DHT22;8828;48.800;9.540;2023-06-22T02:19:41;22.30;99.90
17421;DHT22;8828;48.800;9.540;2023-06-22T02:22:10;22.30;99.90
17421;DHT22;8828;48.800;9.540;2023-06-22T02:24:39;22.30;99.90
17421;DHT22;8828;48.800;9.540;2023-06-22T02:27:07;22.30;99.90
17421;DHT22;8828;48.800;9.540;2023-06-22T02:29:34;22.30;99.90
17421;DHT22;8828;48.800;9.540;2023-06-22T02:32:02;22.20;99.90
17421;DHT22;8828;48.800;9.540;2023-06-22T02:34:31;22.20;99.90
17421;DHT22;8828;48.800;9.540;2023-06-22T02:37:00;22.20;99.90
17421;DHT22;8828;48.800;9.540;2023-06-22T02:39:30;22.20;99.90
17421;DHT22;8828;48.800;9.540;2023-06-22T02:41:58;22.20;99.90
17421;DHT22;8828;48.800;9.540;2023-06-22T02:44:25;22.10;99.90
17421;DHT22;8828;48.800;9.540;2023-06-22T02:46:53;22.10;99.90
17421;DHT22;8828;48.800;9.540;2023-06-22T02:49:21;22.10;99.90
17421;DHT22;8828;48.800;9.540;2023-06-22T02:51:49;22.10;99.90
17421;DHT22;8828;48.800;9.540;2023-06-22T02:54:17;22.10;99.90
17421;DHT22;8828;48.800;9.540;2023-06-22T02:56:46;22.10;99.90
17421;DHT22;8828;48.800;9.540;2023-06-22T02:59:14;22.00;99.90
17421;DHT22;8828;48.800;9.540;2023-06-22T03:01:42;21.90;99.90
17421;DHT22;8828;48.800;9.540;2023-06-22T03:04:10;21.90;99.90
17421;DHT22;8828;48.800;9.540;2023-06-22T03:06:38;21.90;99.90
17421;DHT22;8828;48.800;9.540;2023-06-22T03:09:07;21.90;99.90
17421;DHT22;8828;48.800;9.540;2023-06-22T03:11:35;21.90;99.90
17421;DHT22;8828;48.800;9.540;2023-06-22T03:14:04;21.90;99.90
17421;DHT22;8828;48.800;9.540;2023-06-22T03:16:32;21.90;99.90
17421;DHT22;8828;48.800;9.540;2023-06-22T03:19:00;21.80;99.90
17421;DHT22;8828;48.800;9.540;2023-06-22T03:21:28;21.80;99.90
17421;DHT22;8828;48.800;9.540;2023-06-22T03:23:56;21.80;99.90
17421;DHT22;8828;48.800;9.540;2023-06-22T03:26:24;21.80;99.90
17421;DHT22;8828;48.800;9.540;2023-06-22T03:28:53;21.80;99.90
17421;DHT22;8828;48.800;9.540;2023-06-22T03:31:22;21.80;99.90
17421;DHT22;8828;48.800;9.540;2023-06-22T03:33:50;21.70;99.90
17421;DHT22;8828;48.800;9.540;2023-06-22T03:36:18;21.70;99.90
17421;DHT22;8828;48.800;9.540;2023-06-22T03:38:46;21.70;99.90
17421;DHT22;8828;48.800;9.540;2023-06-22T03:41:15;21.60;99.90
17421;DHT22;8828;48.800;9.540;2023-06-22T03:43:43;21.70;99.90
17421;DHT22;8828;48.800;9.540;2023-06-22T03:46:11;21.70;99.90
17421;DHT22;8828;48.800;9.540;2023-06-22T03:48:40;21.60;99.90
17421;DHT22;8828;48.800;9.540;2023-06-22T03:51:08;21.60;99.90
17421;DHT22;8828;48.800;9.540;2023-06-22T03:53:36;21.60;99.90
17421;DHT22;8828;48.800;9.540;2023-06-22T03:56:04;21.60;99.90
17421;DHT22;8828;48.800;9.540;2023-06-22T03:58:32;21.60;99.90
17421;DHT22;8828;48.800;9.540;2023-06-22T04:01:02;21.60;99.90
17421;DHT22;8828;48.800;9.540;2023-06-22T04:03:30;21.60;99.90
17421;DHT22;8828;48.800;9.540;2023-06-22T04:05:59;21.60;99.90
17421;DHT22;8828;48.800;9.540;2023-06-22T04:08:27;21.60;99.90
17421;DHT22;8828;48.800;9.540;2023-06-22T04:10:55;21.60;99.90
17421;DHT22;8828;48.800;9.540;2023-06-22T04:13:23;21.60;99.90
17421;DHT22;8828;48.800;9.540;2023-06-22T04:15:51;21.70;99.90
17421;DHT22;8828;48.800;9.540;2023-06-22T04:18:19;21.60;99.90
17421;DHT22;8828;48.800;9.540;2023-06-22T04:20:47;21.60;99.90
17421;DHT22;8828;48.800;9.540;2023-06-22T04:23:16;21.60;99.90
17421;DHT22;8828;48.800;9.540;2023-06-22T04:25:44;21.60;99.90
17421;DHT22;8828;48.800;9.540;2023-06-22T04:28:12;21.60;99.90
17421;DHT22;8828;48.800;9.540;2023-06-22T04:30:40;21.70;99.90
17421;DHT22;8828;48.800;9.540;2023-06-22T04:33:13;21.70;99.90
17421;DHT22;8828;48.800;9.540;2023-06-22T04:35:42;21.70;99.90
17421;DHT22;8828;48.800;9.540;2023-06-22T04:38:12;21.70;99.90
17421;DHT22;8828;48.800;9.540;2023-06-22T04:40:41;21.70;99.90
17421;DHT22;8828;48.800;9.540;2023-06-22T04:43:09;21.70;99.90
17421;DHT22;8828;48.800;9.540;2023-06-22T04:45:37;21.70;99.90
17421;DHT22;8828;48.800;9.540;2023-06-22T04:48:06;21.70;99.90
17421;DHT22;8828;48.800;9.540;2023-06-22T04:50:36;21.70;99.90
17421;DHT22;8828;48.800;9.540;2023-06-22T04:53:05;21.80;99.90
17421;DHT22;8828;48.800;9.540;2023-06-22T04:55:34;21.80;99.90
17421;DHT22;8828;48.800;9.540;2023-06-22T04:58:05;21.80;99.90
17421;DHT22;8828;48.800;9.540;2023-06-22T05:00:34;21.80;99.90
17421;DHT22;8828;48.800;9.540;2023-06-22T05:03:03;21.90;99.90
17421;DHT22;8828;48.800;9.540;2023-06-22T05:05:45;21.90;99.90
17421;DHT22;8828;48.800;9.540;2023-06-22T05:08:13;22.00;99.90
17421;DHT22;8828;48.800;9.540;2023-06-22T05:10:42;22.00;99.90
17421;DHT22;8828;48.800;9.540;2023-06-22T05:13:26;22.00;99.90
17421;DHT22;8828;48.800;9.540;2023-06-22T05:15:54;22.00;99.90
17421;DHT22;8828;48.800;9.540;2023-06-22T05:18:28;22.10;99.90
17421;DHT22;8828;48.800;9.540;2023-06-22T05:20:58;22.10;99.90
17421;DHT22;8828;48.800;9.540;2023-06-22T05:23:26;22.20;99.90
17421;DHT22;8828;48.800;9.540;2023-06-22T05:25:54;22.20;99.90
17421;DHT22;8828;48.800;9.540;2023-06-22T05:28:26;22.20;99.90
17421;DHT22;8828;48.800;9.540;2023-06-22T05:30:54;22.30;99.90
17421;DHT22;8828;48.800;9.540;2023-06-22T05:33:22;22.30;99.90
17421;DHT22;8828;48.800;9.540;2023-06-22T05:35:50;22.30;99.90
17421;DHT22;8828;48.800;9.540;2023-06-22T05:38:18;22.40;99.90
17421;DHT22;8828;48.800;9.540;2023-06-22T05:40:46;22.40;99.90
17421;DHT22;8828;48.800;9.540;2023-06-22T05:43:14;22.50;99.90
17421;DHT22;8828;48.800;9.540;2023-06-22T05:45:43;22.50;99.90
17421;DHT22;8828;48.800;9.540;2023-06-22T05:48:11;22.50;99.90
17421;DHT22;8828;48.800;9.540;2023-06-22T05:50:39;22.50;99.90
17421;DHT22;8828;48.800;9.540;2023-06-22T05:53:07;22.60;99.90
17421;DHT22;8828;48.800;9.540;2023-06-22T05:55:35;22.60;99.90
17421;DHT22;8828;48.800;9.540;2023-06-22T05:58:03;22.60;99.90
17421;DHT22;8828;48.800;9.540;2023-06-22T06:00:31;22.70;99.90
17421;DHT22;8828;48.800;9.540;2023-06-22T06:03:01;22.70;99.90
17421;DHT22;8828;48.800;9.540;2023-06-22T06:05:30;22.80;99.90
17421;DHT22;8828;48.800;9.540;2023-06-22T06:07:59;22.80;99.90
17421;DHT22;8828;48.800;9.540;2023-06-22T06:10:27;22.90;99.90
17421;DHT22;8828;48.800;9.540;2023-06-22T06:12:57;22.90;99.90
17421;DHT22;8828;48.800;9.540;2023-06-22T06:15:25;22.90;99.90
17421;DHT22;8828;48.800;9.540;2023-06-22T06:17:53;23.00;99.90
17421;DHT22;8828;48.800;9.540;2023-06-22T06:20:24;23.00;99.90
17421;DHT22;8828;48.800;9.540;2023-06-22T06:22:52;23.00;99.90
17421;DHT22;8828;48.800;9.540;2023-06-22T06:25:21;23.10;99.90
17421;DHT22;8828;48.800;9.540;2023-06-22T06:27:50;23.10;99.90
17421;DHT22;8828;48.800;9.540;2023-06-22T06:30:21;23.20;99.90
17421;DHT22;8828;48.800;9.540;2023-06-22T06:32:49;23.20;99.90
17421;DHT22;8828;48.800;9.540;2023-06-22T06:35:18;23.20;99.90
17421;DHT22;8828;48.800;9.540;2023-06-22T06:37:48;23.30;99.90
17421;DHT22;8828;48.800;9.540;2023-06-22T06:40:18;23.30;99.90
17421;DHT22;8828;48.800;9.540;2023-06-22T06:42:47;23.40;99.90
17421;DHT22;8828;48.800;9.540;2023-06-22T06:45:17;23.40;99.90
17421;DHT22;8828;48.800;9.540;2023-06-22T06:47:46;23.50;99.90
17421;DHT22;8828;48.800;9.540;2023-06-22T06:50:14;23.50;99.90
17421;DHT22;8828;48.800;9.540;2023-06-22T06:52:42;23.50;99.90
17421;DHT22;8828;48.800;9.540;2023-06-22T06:55:12;23.60;99.90
17421;DHT22;8828;48.800;9.540;2023-06-22T06:57:41;23.60;99.90
17421;DHT22;8828;48.800;9.540;2023-06-22T07:00:11;23.70;99.90
17421;DHT22;8828;48.800;9.540;2023-06-22T07:02:42;23.70;99.90
17421;DHT22;8828;48.800;9.540;2023-06-22T07:05:10;23.80;99.90
17421;DHT22;8828;48.800;9.540;2023-06-22T07:07:38;23.80;99.90
17421;DHT22;8828;48.800;9.540;2023-06-22T07:10:07;23.80;99.90
17421;DHT22;8828;48.800;9.540;2023-06-22T07:12:36;23.90;99.90
17421;DHT22;8828;48.800;9.540;2023-06-22T07:15:06;23.90;99.90
17421;DHT22;8828;48.800;9.540;2023-06-22T07:17:35;24.00;99.90
17421;DHT22;8828;48.800;9.540;2023-06-22T07:20:04;24.00;99.90
17421;DHT22;8828;48.800;9.540;2023-06-22T07:22:37;24.10;99.90
17421;DHT22;8828;48.800;9.540;2023-06-22T07:25:06;24.20;99.90
17421;DHT22;8828;48.800;9.540;2023-06-22T07:27:39;24.20;99.90
17421;DHT22;8828;48.800;9.540;2023-06-22T07:30:10;24.30;99.90
17421;DHT22;8828;48.800;9.540;2023-06-22T07:32:38;24.30;99.90
17421;DHT22;8828;48.800;9.540;2023-06-22T07:35:07;24.40;99.90
17421;DHT22;8828;48.800;9.540;2023-06-22T07:37:35;24.50;99.90
17421;DHT22;8828;48.800;9.540;2023-06-22T07:40:03;24.50;99.90
17421;DHT22;8828;48.800;9.540;2023-06-22T07:42:33;24.60;99.90
17421;DHT22;8828;48.800;9.540;2023-06-22T07:45:03;24.60;99.90
17421;DHT22;8828;48.800;9.540;2023-06-22T07:47:34;24.70;99.90
17421;DHT22;8828;48.800;9.540;2023-06-22T07:50:04;24.70;99.90
17421;DHT22;8828;48.800;9.540;2023-06-22T07:52:32;24.80;99.90
17421;DHT22;8828;48.800;9.540;2023-06-22T07:55:00;24.90;99.90
17421;DHT22;8828;48.800;9.540;2023-06-22T07:57:28;25.00;99.90
17421;DHT22;8828;48.800;9.540;2023-06-22T08:00:03;25.50;99.90
17421;DHT22;8828;48.800;9.540;2023-06-22T08:02:38;26.20;99.90
17421;DHT22;8828;48.800;9.540;2023-06-22T08:05:06;27.00;99.90
17421;DHT22;8828;48.800;9.540;2023-06-22T08:07:47;27.70;99.90
17421;DHT22;8828;48.800;9.540;2023-06-22T08:10:15;28.40;99.90
17421;DHT22;8828;48.800;9.540;2023-06-22T08:12:43;29.00;99.90
17421;DHT22;8828;48.800;9.540;2023-06-22T08:15:12;29.50;99.90
17421;DHT22;8828;48.800;9.540;2023-06-22T08:17:40;29.90;99.90
17421;DHT22;8828;48.800;9.540;2023-06-22T08:20:10;30.30;99.90
17421;DHT22;8828;48.800;9.540;2023-06-22T08:22:39;30.60;99.80
17421;DHT22;8828;48.800;9.540;2023-06-22T08:25:08;30.90;99.40
17421;DHT22;8828;48.800;9.540;2023-06-22T08:27:36;31.00;98.00
17421;DHT22;8828;48.800;9.540;2023-06-22T08:30:06;31.20;97.50
17421;DHT22;8828;48.800;9.540;2023-06-22T08:32:36;31.40;96.40
17421;DHT22;8828;48.800;9.540;2023-06-22T08:35:05;31.60;96.20
17421;DHT22;8828;48.800;9.540;2023-06-22T08:37:35;31.70;95.90
17421;DHT22;8828;48.800;9.540;2023-06-22T08:40:05;31.90;95.70
17421;DHT22;8828;48.800;9.540;2023-06-22T08:42:34;32.00;95.40
17421;DHT22;8828;48.800;9.540;2023-06-22T08:45:03;32.00;95.20
17421;DHT22;8828;48.800;9.540;2023-06-22T08:47:31;32.00;93.10
17421;DHT22;8828;48.800;9.540;2023-06-22T08:50:01;32.00;93.70
17421;DHT22;8828;48.800;9.540;2023-06-22T08:52:30;32.00;93.40
17421;DHT22;8828;48.800;9.540;2023-06-22T08:54:58;32.20;94.10
17421;DHT22;8828;48.800;9.540;2023-06-22T08:57:26;32.20;93.00
17421;DHT22;8828;48.800;9.540;2023-06-22T08:59:54;32.20;93.00
17421;DHT22;8828;48.800;9.540;2023-06-22T09:02:25;32.20;92.40
17421;DHT22;8828;48.800;9.540;2023-06-22T09:04:59;32.20;91.40
17421;DHT22;8828;48.800;9.540;2023-06-22T09:07:29;32.20;91.90
17421;DHT22;8828;48.800;9.540;2023-06-22T09:09:57;32.30;91.70
17421;DHT22;8828;48.800;9.540;2023-06-22T09:12:29;32.40;92.00
17421;DHT22;8828;48.800;9.540;2023-06-22T09:14:57;32.50;91.80
17421;DHT22;8828;48.800;9.540;2023-06-22T09:17:27;32.70;91.70
17421;DHT22;8828;48.800;9.540;2023-06-22T09:19:55;32.80;91.00
17421;DHT22;8828;48.800;9.540;2023-06-22T09:22:23;32.90;90.90
17421;DHT22;8828;48.800;9.540;2023-06-22T09:24:57;32.90;90.50
17421;DHT22;8828;48.800;9.540;2023-06-22T09:27:26;32.80;91.10
17421;DHT22;8828;48.800;9.540;2023-06-22T09:29:54;32.90;90.40
17421;DHT22;8828;48.800;9.540;2023-06-22T09:32:25;32.90;90.40
17421;DHT22;8828;48.800;9.540;2023-06-22T09:34:54;32.90;90.00
17421;DHT22;8828;48.800;9.540;2023-06-22T09:37:22;32.90;90.10
17421;DHT22;8828;48.800;9.540;2023-06-22T09:39:50;33.00;90.30
17421;DHT22;8828;48.800;9.540;2023-06-22T09:42:19;33.10;90.30
17421;DHT22;8828;48.800;9.540;2023-06-22T09:44:47;33.20;90.30
17421;DHT22;8828;48.800;9.540;2023-06-22T09:47:15;33.40;89.30
17421;DHT22;8828;48.800;9.540;2023-06-22T09:49:43;33.40;87.90
17421;DHT22;8828;48.800;9.540;2023-06-22T09:52:15;33.30;87.20
17421;DHT22;8828;48.800;9.540;2023-06-22T09:54:43;33.40;88.40
17421;DHT22;8828;48.800;9.540;2023-06-22T09:57:11;33.40;88.40
17421;DHT22;8828;48.800;9.540;2023-06-22T09:59:42;33.60;87.00
17421;DHT22;8828;48.800;9.540;2023-06-22T10:02:10;33.60;88.50
17421;DHT22;8828;48.800;9.540;2023-06-22T10:04:38;33.70;86.90
17421;DHT22;8828;48.800;9.540;2023-06-22T10:07:07;33.70;87.30
17421;DHT22;8828;48.800;9.540;2023-06-22T10:09:35;33.80;87.40
17421;DHT22;8828;48.800;9.540;2023-06-22T10:12:03;33.90;86.60
17421;DHT22;8828;48.800;9.540;2023-06-22T10:14:31;34.00;85.60
17421;DHT22;8828;48.800;9.540;2023-06-22T10:17:02;34.10;85.80
17421;DHT22;8828;48.800;9.540;2023-06-22T10:19:30;34.30;85.20
17421;DHT22;8828;48.800;9.540;2023-06-22T10:21:58;34.50;86.60
17421;DHT22;8828;48.800;9.540;2023-06-22T10:24:26;34.70;84.30
17421;DHT22;8828;48.800;9.540;2023-06-22T10:26:54;34.70;84.20
17421;DHT22;8828;48.800;9.540;2023-06-22T10:29:22;34.80;85.80
17421;DHT22;8828;48.800;9.540;2023-06-22T10:31:50;34.70;84.10
17421;DHT22;8828;48.800;9.540;2023-06-22T10:34:19;34.60;83.40
17421;DHT22;8828;48.800;9.540;2023-06-22T10:36:47;34.60;85.50
17421;DHT22;8828;48.800;9.540;2023-06-22T10:39:15;34.70;84.70
17421;DHT22;8828;48.800;9.540;2023-06-22T10:41:43;34.70;84.20
17421;DHT22;8828;48.800;9.540;2023-06-22T10:44:12;34.70;82.50
17421;DHT22;8828;48.800;9.540;2023-06-22T10:46:40;34.70;85.20
17421;DHT22;8828;48.800;9.540;2023-06-22T10:49:08;34.60;85.30
17421;DHT22;8828;48.800;9.540;2023-06-22T10:51:37;34.80;84.20
17421;DHT22;8828;48.800;9.540;2023-06-22T10:54:05;34.80;83.80
17421;DHT22;8828;48.800;9.540;2023-06-22T10:56:33;34.90;83.20
17421;DHT22;8828;48.800;9.540;2023-06-22T10:59:01;35.00;82.50
17421;DHT22;8828;48.800;9.540;2023-06-22T11:01:29;35.20;82.20
17421;DHT22;8828;48.800;9.540;2023-06-22T11:04:03;35.20;81.90
17421;DHT22;8828;48.800;9.540;2023-06-22T11:06:31;35.20;81.50
17421;DHT22;8828;48.800;9.540;2023-06-22T11:09:01;35.30;81.90
17421;DHT22;8828;48.800;9.540;2023-06-22T11:11:51;35.30;80.40
17421;DHT22;8828;48.800;9.540;2023-06-22T11:14:20;35.50;80.20
17421;DHT22;8828;48.800;9.540;2023-06-22T11:16:49;35.60;79.60
17421;DHT22;8828;48.800;9.540;2023-06-22T11:19:17;35.50;78.10
17421;DHT22;8828;48.800;9.540;2023-06-22T11:21:45;35.70;80.00
17421;DHT22;8828;48.800;9.540;2023-06-22T11:24:15;35.70;78.30
17421;DHT22;8828;48.800;9.540;2023-06-22T11:26:43;35.60;78.50
17421;DHT22;8828;48.800;9.540;2023-06-22T11:29:11;35.70;79.00
17421;DHT22;8828;48.800;9.540;2023-06-22T11:31:58;35.70;78.20
17421;DHT22;8828;48.800;9.540;2023-06-22T11:34:26;35.70;78.60
17421;DHT22;8828;48.800;9.540;2023-06-22T11:36:54;35.70;77.30
17421;DHT22;8828;48.800;9.540;2023-06-22T11:39:24;35.70;77.30
17421;DHT22;8828;48.800;9.540;2023-06-22T11:42:07;35.80;76.80
17421;DHT22;8828;48.800;9.540;2023-06-22T11:44:35;35.80;76.30
17421;DHT22;8828;48.800;9.540;2023-06-22T11:47:04;35.80;76.50
17421;DHT22;8828;48.800;9.540;2023-06-22T11:49:32;35.70;76.50
17421;DHT22;8828;48.800;9.540;2023-06-22T11:52:00;35.80;77.00
17421;DHT22;8828;48.800;9.540;2023-06-22T11:54:29;35.80;77.20
17421;DHT22;8828;48.800;9.540;2023-06-22T11:56:57;35.80;76.80
17421;DHT22;8828;48.800;9.540;2023-06-22T11:59:25;35.70;77.00
17421;DHT22;8828;48.800;9.540;2023-06-22T12:01:53;35.60;76.90
17421;DHT22;8828;48.800;9.540;2023-06-22T12:04:22;35.50;77.90
17421;DHT22;8828;48.800;9.540;2023-06-22T12:06:50;35.40;79.30
17421;DHT22;8828;48.800;9.540;2023-06-22T12:09:18;35.40;78.50
17421;DHT22;8828;48.800;9.540;2023-06-22T12:11:47;35.30;79.30
17421;DHT22;8828;48.800;9.540;2023-06-22T12:14:15;35.30;79.80
17421;DHT22;8828;48.800;9.540;2023-06-22T12:16:43;35.20;79.60
17421;DHT22;8828;48.800;9.540;2023-06-22T12:19:11;35.20;80.40
17421;DHT22;8828;48.800;9.540;2023-06-22T12:21:39;35.20;79.70
17421;DHT22;8828;48.800;9.540;2023-06-22T12:24:08;35.30;80.10
17421;DHT22;8828;48.800;9.540;2023-06-22T12:26:36;35.30;79.20
17421;DHT22;8828;48.800;9.540;2023-06-22T12:29:05;35.30;78.70
17421;DHT22;8828;48.800;9.540;2023-06-22T12:31:35;35.30;77.80
17421;DHT22;8828;48.800;9.540;2023-06-22T12:34:03;35.30;78.40
17421;DHT22;8828;48.800;9.540;2023-06-22T12:36:31;35.20;78.40
17421;DHT22;8828;48.800;9.540;2023-06-22T12:38:59;35.10;78.60
17421;DHT22;8828;48.800;9.540;2023-06-22T12:41:27;35.10;78.20
17421;DHT22;8828;48.800;9.540;2023-06-22T12:43:55;35.00;78.70
17421;DHT22;8828;48.800;9.540;2023-06-22T12:46:25;35.00;78.30
17421;DHT22;8828;48.800;9.540;2023-06-22T12:48:53;34.50;79.10
17421;DHT22;8828;48.800;9.540;2023-06-22T12:51:21;33.90;81.50
17421;DHT22;8828;48.800;9.540;2023-06-22T12:53:50;33.40;82.70
17421;DHT22;8828;48.800;9.540;2023-06-22T12:56:18;32.90;83.70
17421;DHT22;8828;48.800;9.540;2023-06-22T12:58:46;32.50;85.00
17421;DHT22;8828;48.800;9.540;2023-06-22T13:01:14;32.10;85.90
17421;DHT22;8828;48.800;9.540;2023-06-22T13:03:43;31.80;86.60
17421;DHT22;8828;48.800;9.540;2023-06-22T13:06:11;31.50;87.60
17421;DHT22;8828;48.800;9.540;2023-06-22T13:08:39;31.40;88.70
17421;DHT22;8828;48.800;9.540;2023-06-22T13:11:28;31.10;88.90
17421;DHT22;8828;48.800;9.540;2023-06-22T13:13:56;31.10;89.80
17421;DHT22;8828;48.800;9.540;2023-06-22T13:16:25;30.90;90.00
17421;DHT22;8828;48.800;9.540;2023-06-22T13:18:54;30.80;90.40
17421;DHT22;8828;48.800;9.540;2023-06-22T13:21:22;30.70;90.60
17421;DHT22;8828;48.800;9.540;2023-06-22T13:23:50;30.70;91.00
17421;DHT22;8828;48.800;9.540;2023-06-22T13:26:18;30.60;90.70
17421;DHT22;8828;48.800;9.540;2023-06-22T13:28:46;30.60;90.90
17421;DHT22;8828;48.800;9.540;2023-06-22T13:31:14;30.60;90.90
17421;DHT22;8828;48.800;9.540;2023-06-22T13:33:42;30.60;90.80
17421;DHT22;8828;48.800;9.540;2023-06-22T13:36:13;30.70;91.00
17421;DHT22;8828;48.800;9.540;2023-06-22T13:38:41;30.70;90.60
17421;DHT22;8828;48.800;9.540;2023-06-22T13:41:09;30.70;91.50
17421;DHT22;8828;48.800;9.540;2023-06-22T13:43:37;30.90;90.70
17421;DHT22;8828;48.800;9.540;2023-06-22T13:46:05;30.90;90.70
17421;DHT22;8828;48.800;9.540;2023-06-22T13:48:33;30.90;90.40
17421;DHT22;8828;48.800;9.540;2023-06-22T13:51:02;30.90;90.40
17421;DHT22;8828;48.800;9.540;2023-06-22T13:53:31;30.90;90.40
17421;DHT22;8828;48.800;9.540;2023-06-22T13:55:59;30.90;90.90
17421;DHT22;8828;48.800;9.540;2023-06-22T13:58:27;30.90;90.70
17421;DHT22;8828;48.800;9.540;2023-06-22T14:00:55;30.90;90.50
17421;DHT22;8828;48.800;9.540;2023-06-22T14:03:23;30.90;90.10
17421;DHT22;8828;48.800;9.540;2023-06-22T14:05:51;30.90;89.20
17421;DHT22;8828;48.800;9.540;2023-06-22T14:08:23;30.90;89.20
17421;DHT22;8828;48.800;9.540;2023-06-22T14:11:10;30.80;87.80
17421;DHT22;8828;48.800;9.540;2023-06-22T14:13:38;30.90;85.40
17421;DHT22;8828;48.800;9.540;2023-06-22T14:16:09;30.80;85.60
17421;DHT22;8828;48.800;9.540;2023-06-22T14:18:37;30.80;85.40
17421;DHT22;8828;48.800;9.540;2023-06-22T14:21:05;30.80;86.20
17421;DHT22;8828;48.800;9.540;2023-06-22T14:23:33;30.80;86.60
17421;DHT22;8828;48.800;9.540;2023-06-22T14:26:01;30.80;87.20
17421;DHT22;8828;48.800;9.540;2023-06-22T14:28:30;30.80;86.20
17421;DHT22;8828;48.800;9.540;2023-06-22T14:30:58;30.70;85.80
17421;DHT22;8828;48.800;9.540;2023-06-22T14:33:26;30.70;85.60
17421;DHT22;8828;48.800;9.540;2023-06-22T14:35:54;30.70;85.90
17421;DHT22;8828;48.800;9.540;2023-06-22T14:38:22;30.60;85.70
17421;DHT22;8828;48.800;9.540;2023-06-22T14:40:50;30.60;83.60
17421;DHT22;8828;48.800;9.540;2023-06-22T14:43:43;30.70;83.20
17421;DHT22;8828;48.800;9.540;2023-06-22T14:46:12;30.70;83.90
17421;DHT22;8828;48.800;9.540;2023-06-22T14:48:40;30.70;81.40
17421;DHT22;8828;48.800;9.540;2023-06-22T14:51:09;30.70;82.90
17421;DHT22;8828;48.800;9.540;2023-06-22T14:53:43;30.80;81.60
17421;DHT22;8828;48.800;9.540;2023-06-22T14:56:14;30.80;82.50
17421;DHT22;8828;48.800;9.540;2023-06-22T14:58:44;30.80;83.00
17421;DHT22;8828;48.800;9.540;2023-06-22T15:01:14;30.90;81.50
17421;DHT22;8828;48.800;9.540;2023-06-22T15:03:42;30.90;81.90
17421;DHT22;8828;48.800;9.540;2023-06-22T15:06:10;30.80;81.80
17421;DHT22;8828;48.800;9.540;2023-06-22T15:08:39;30.80;81.90
17421;DHT22;8828;48.800;9.540;2023-06-22T15:11:07;30.80;82.20
17421;DHT22;8828;48.800;9.540;2023-06-22T15:13:39;30.80;82.90
17421;DHT22;8828;48.800;9.540;2023-06-22T15:16:08;30.70;83.70
17421;DHT22;8828;48.800;9.540;2023-06-22T15:18:37;30.80;83.50
17421;DHT22;8828;48.800;9.540;2023-06-22T15:21:07;30.80;83.10
17421;DHT22;8828;48.800;9.540;2023-06-22T15:23:35;30.90;83.40
17421;DHT22;8828;48.800;9.540;2023-06-22T15:26:04;30.90;83.80
17421;DHT22;8828;48.800;9.540;2023-06-22T15:28:33;30.90;83.80
17421;DHT22;8828;48.800;9.540;2023-06-22T15:31:04;30.80;83.30
17421;DHT22;8828;48.800;9.540;2023-06-22T15:33:33;30.80;83.50
17421;DHT22;8828;48.800;9.540;2023-06-22T15:36:01;30.80;84.40
17421;DHT22;8828;48.800;9.540;2023-06-22T15:38:32;30.80;83.90
17421;DHT22;8828;48.800;9.540;2023-06-22T15:41:00;30.80;80.90
17421;DHT22;8828;48.800;9.540;2023-06-22T15:43:28;30.70;80.10
17421;DHT22;8828;48.800;9.540;2023-06-22T15:45:56;30.70;79.10
17421;DHT22;8828;48.800;9.540;2023-06-22T15:48:24;30.70;77.60
17421;DHT22;8828;48.800;9.540;2023-06-22T15:50:54;30.70;78.30
17421;DHT22;8828;48.800;9.540;2023-06-22T15:53:22;30.70;75.50
17421;DHT22;8828;48.800;9.540;2023-06-22T15:55:50;30.70;74.60